sensor_id;sensor_type;location;lat;lon;timestamp;P1;durP1;ratioP1;P2;durP2;ratioP2
72720;SDS011;60835;50.974;10.322;2022-10-26T00:00:21;12.98;;;3.25;;
72720;SDS011;60835;50.974;10.322;2022-10-26T00:02:47;7.95;;;3.92;;
72720;SDS011;60835;50.974;10.322;2022-10-26T00:05:14;11.02;;;3.70;;
72720;SDS011;60835;50.974;10.322;2022-10-26T00:07:41;8.65;;;3.75;;
72720;SDS011;60835;50.974;10.322;2022-10-26T00:10:07;11.38;;;4.75;;
72720;SDS011;60835;50.974;10.322;2022-10-26T00:12:34;7.13;;;3.92;;
72720;SDS011;60835;50.974;10.322;2022-10-26T00:15:00;14.80;;;4.80;;
72720;SDS011;60835;50.974;10.322;2022-10-26T00:17:27;15.70;;;4.32;;
72720;SDS011;60835;50.974;10.322;2022-10-26T00:19:53;7.30;;;4.15;;
72720;SDS011;60835;50.974;10.322;2022-10-26T00:22:20;6.82;;;3.90;;
72720;SDS011;60835;50.974;10.322;2022-10-26T00:24:46;13.07;;;3.97;;
72720;SDS011;60835;50.974;10.322;2022-10-26T00:27:12;7.80;;;4.00;;
72720;SDS011;60835;50.974;10.322;2022-10-26T00:29:39;11.38;;;3.35;;
72720;SDS011;60835;50.974;10.322;2022-10-26T00:32:05;7.22;;;3.40;;
72720;SDS011;60835;50.974;10.322;2022-10-26T00:34:32;8.88;;;3.70;;
72720;SDS011;60835;50.974;10.322;2022-10-26T00:36:58;11.02;;;4.80;;
72720;SDS011;60835;50.974;10.322;2022-10-26T00:39:25;7.82;;;4.55;;
72720;SDS011;60835;50.974;10.322;2022-10-26T00:41:51;7.80;;;4.13;;
72720;SDS011;60835;50.974;10.322;2022-10-26T00:49:51;13.60;;;3.50;;
72720;SDS011;60835;50.974;10.322;2022-10-26T00:52:21;18.25;;;4.07;;
72720;SDS011;60835;50.974;10.322;2022-10-26T00:54:50;11.50;;;3.80;;
72720;SDS011;60835;50.974;10.322;2022-10-26T00:57:19;15.98;;;4.40;;
72720;SDS011;60835;50.974;10.322;2022-10-26T00:59:45;9.27;;;3.30;;
72720;SDS011;60835;50.974;10.322;2022-10-26T01:02:12;23.67;;;3.33;;
72720;SDS011;60835;50.974;10.322;2022-10-26T01:04:39;16.70;;;2.55;;
72720;SDS011;60835;50.974;10.322;2022-10-26T01:07:05;19.15;;;2.42;;
72720;SDS011;60835;50.974;10.322;2022-10-26T01:09:33;26.25;;;2.60;;
72720;SDS011;60835;50.974;10.322;2022-10-26T01:12:01;8.63;;;1.90;;
72720;SDS011;60835;50.974;10.322;2022-10-26T01:14:27;7.35;;;2.13;;
72720;SDS011;60835;50.974;10.322;2022-10-26T01:17:04;9.40;;;1.90;;
72720;SDS011;60835;50.974;10.322;2022-10-26T01:22:53;9.70;;;2.17;;
72720;SDS011;60835;50.974;10.322;2022-10-26T01:28:06;10.63;;;2.60;;
72720;SDS011;60835;50.974;10.322;2022-10-26T01:30:44;13.02;;;2.42;;
72720;SDS011;60835;50.974;10.322;2022-10-26T01:33:30;6.13;;;2.22;;
72720;SDS011;60835;50.974;10.322;2022-10-26T01:36:19;9.07;;;2.58;;
72720;SDS011;60835;50.974;10.322;2022-10-26T01:41:49;8.25;;;2.50;;
72720;SDS011;60835;50.974;10.322;2022-10-26T01:44:29;8.55;;;2.65;;
72720;SDS011;60835;50.974;10.322;2022-10-26T01:47:04;12.75;;;2.80;;
72720;SDS011;60835;50.974;10.322;2022-10-26T01:49:34;10.90;;;2.58;;
72720;SDS011;60835;50.974;10.322;2022-10-26T01:52:03;8.60;;;2.50;;
72720;SDS011;60835;50.974;10.322;2022-10-26T01:54:33;8.18;;;2.58;;
72720;SDS011;60835;50.974;10.322;2022-10-26T01:57:03;8.57;;;2.40;;
72720;SDS011;60835;50.974;10.322;2022-10-26T02:19:01;20.90;;;2.95;;
72720;SDS011;60835;50.974;10.322;2022-10-26T02:21:34;11.57;;;2.58;;
72720;SDS011;60835;50.974;10.322;2022-10-26T02:24:03;17.15;;;2.40;;
72720;SDS011;60835;50.974;10.322;2022-10-26T02:26:37;10.15;;;2.63;;
72720;SDS011;60835;50.974;10.322;2022-10-26T02:29:07;11.27;;;3.50;;
72720;SDS011;60835;50.974;10.322;2022-10-26T02:31:38;17.25;;;4.70;;
72720;SDS011;60835;50.974;10.322;2022-10-26T02:34:07;13.00;;;4.25;;
72720;SDS011;60835;50.974;10.322;2022-10-26T02:36:37;10.32;;;3.65;;
72720;SDS011;60835;50.974;10.322;2022-10-26T02:39:07;5.47;;;3.15;;
72720;SDS011;60835;50.974;10.322;2022-10-26T02:41:36;8.25;;;4.15;;
72720;SDS011;60835;50.974;10.322;2022-10-26T02:44:22;12.70;;;4.25;;
72720;SDS011;60835;50.974;10.322;2022-10-26T02:46:51;7.88;;;3.53;;
72720;SDS011;60835;50.974;10.322;2022-10-26T02:49:19;11.70;;;3.90;;
72720;SDS011;60835;50.974;10.322;2022-10-26T02:54:31;5.40;;;3.58;;
72720;SDS011;60835;50.974;10.322;2022-10-26T02:57:06;8.57;;;3.55;;
72720;SDS011;60835;50.974;10.322;2022-10-26T02:59:39;9.80;;;4.50;;
72720;SDS011;60835;50.974;10.322;2022-10-26T03:02:08;7.82;;;3.22;;
72720;SDS011;60835;50.974;10.322;2022-10-26T03:04:36;9.30;;;3.17;;
72720;SDS011;60835;50.974;10.322;2022-10-26T03:07:03;6.68;;;2.20;;
72720;SDS011;60835;50.974;10.322;2022-10-26T03:09:29;12.57;;;2.22;;
72720;SDS011;60835;50.974;10.322;2022-10-26T03:11:55;6.50;;;2.45;;
72720;SDS011;60835;50.974;10.322;2022-10-26T03:14:22;7.82;;;2.13;;
72720;SDS011;60835;50.974;10.322;2022-10-26T03:16:48;7.25;;;2.00;;
72720;SDS011;60835;50.974;10.322;2022-10-26T03:19:20;8.23;;;2.08;;
72720;SDS011;60835;50.974;10.322;2022-10-26T03:21:46;12.55;;;2.88;;
72720;SDS011;60835;50.974;10.322;2022-10-26T03:24:13;7.80;;;2.30;;
72720;SDS011;60835;50.974;10.322;2022-10-26T03:26:39;6.30;;;1.73;;
72720;SDS011;60835;50.974;10.322;2022-10-26T03:29:06;14.57;;;2.17;;
72720;SDS011;60835;50.974;10.322;2022-10-26T03:31:34;10.35;;;2.40;;
72720;SDS011;60835;50.974;10.322;2022-10-26T03:34:00;7.28;;;2.35;;
72720;SDS011;60835;50.974;10.322;2022-10-26T03:36:27;11.88;;;2.63;;
72720;SDS011;60835;50.974;10.322;2022-10-26T03:38:53;11.20;;;3.45;;
72720;SDS011;60835;50.974;10.322;2022-10-26T03:41:20;8.40;;;2.88;;
72720;SDS011;60835;50.974;10.322;2022-10-26T03:43:46;8.65;;;2.75;;
72720;SDS011;60835;50.974;10.322;2022-10-26T03:46:13;8.18;;;2.85;;
72720;SDS011;60835;50.974;10.322;2022-10-26T03:48:40;5.40;;;2.40;;
72720;SDS011;60835;50.974;10.322;2022-10-26T03:51:06;10.27;;;2.63;;
72720;SDS011;60835;50.974;10.322;2022-10-26T03:53:33;7.55;;;2.60;;
72720;SDS011;60835;50.974;10.322;2022-10-26T03:55:59;10.63;;;3.05;;
72720;SDS011;60835;50.974;10.322;2022-10-26T03:58:25;12.70;;;3.35;;
72720;SDS011;60835;50.974;10.322;2022-10-26T04:00:52;13.93;;;3.53;;
72720;SDS011;60835;50.974;10.322;2022-10-26T04:03:18;11.63;;;2.63;;
72720;SDS011;60835;50.974;10.322;2022-10-26T04:05:45;13.95;;;3.30;;
72720;SDS011;60835;50.974;10.322;2022-10-26T04:08:11;11.13;;;3.88;;
72720;SDS011;60835;50.974;10.322;2022-10-26T04:10:38;17.67;;;4.70;;
72720;SDS011;60835;50.974;10.322;2022-10-26T04:13:04;14.15;;;4.38;;
72720;SDS011;60835;50.974;10.322;2022-10-26T04:15:30;10.88;;;4.00;;
72720;SDS011;60835;50.974;10.322;2022-10-26T04:17:57;10.98;;;4.93;;
72720;SDS011;60835;50.974;10.322;2022-10-26T04:20:25;11.40;;;4.10;;
72720;SDS011;60835;50.974;10.322;2022-10-26T04:23:00;8.30;;;3.85;;
72720;SDS011;60835;50.974;10.322;2022-10-26T04:25:28;10.73;;;2.80;;
72720;SDS011;60835;50.974;10.322;2022-10-26T04:27:58;8.38;;;2.75;;
72720;SDS011;60835;50.974;10.322;2022-10-26T04:30:27;6.43;;;2.38;;
72720;SDS011;60835;50.974;10.322;2022-10-26T04:32:54;11.30;;;2.45;;
72720;SDS011;60835;50.974;10.322;2022-10-26T04:35:21;10.98;;;2.55;;
72720;SDS011;60835;50.974;10.322;2022-10-26T04:37:47;14.32;;;3.13;;
72720;SDS011;60835;50.974;10.322;2022-10-26T04:40:14;12.70;;;4.75;;
72720;SDS011;60835;50.974;10.322;2022-10-26T04:42:42;12.60;;;4.72;;
72720;SDS011;60835;50.974;10.322;2022-10-26T04:45:10;11.70;;;4.95;;
72720;SDS011;60835;50.974;10.322;2022-10-26T04:47:38;15.55;;;4.43;;
72720;SDS011;60835;50.974;10.322;2022-10-26T04:50:04;21.35;;;5.72;;
72720;SDS011;60835;50.974;10.322;2022-10-26T04:52:32;10.15;;;5.40;;
72720;SDS011;60835;50.974;10.322;2022-10-26T04:54:59;11.55;;;5.20;;
72720;SDS011;60835;50.974;10.322;2022-10-26T04:57:26;14.82;;;4.88;;
72720;SDS011;60835;50.974;10.322;2022-10-26T04:59:52;21.25;;;5.45;;
72720;SDS011;60835;50.974;10.322;2022-10-26T05:02:18;20.10;;;5.43;;
72720;SDS011;60835;50.974;10.322;2022-10-26T05:04:46;11.82;;;5.10;;
72720;SDS011;60835;50.974;10.322;2022-10-26T05:07:13;15.98;;;4.72;;
72720;SDS011;60835;50.974;10.322;2022-10-26T05:09:39;10.23;;;5.00;;
72720;SDS011;60835;50.974;10.322;2022-10-26T05:12:06;16.55;;;5.07;;
72720;SDS011;60835;50.974;10.322;2022-10-26T05:14:32;18.60;;;5.68;;
72720;SDS011;60835;50.974;10.322;2022-10-26T05:16:59;17.02;;;5.32;;
72720;SDS011;60835;50.974;10.322;2022-10-26T05:19:25;12.15;;;4.40;;
72720;SDS011;60835;50.974;10.322;2022-10-26T05:21:51;9.48;;;4.35;;
72720;SDS011;60835;50.974;10.322;2022-10-26T05:24:18;18.02;;;5.60;;
72720;SDS011;60835;50.974;10.322;2022-10-26T05:26:45;13.60;;;4.60;;
72720;SDS011;60835;50.974;10.322;2022-10-26T05:29:11;8.45;;;4.22;;
72720;SDS011;60835;50.974;10.322;2022-10-26T05:31:38;7.28;;;3.33;;
72720;SDS011;60835;50.974;10.322;2022-10-26T05:34:04;25.35;;;4.35;;
72720;SDS011;60835;50.974;10.322;2022-10-26T05:36:30;9.60;;;3.70;;
72720;SDS011;60835;50.974;10.322;2022-10-26T05:38:57;13.52;;;3.45;;
72720;SDS011;60835;50.974;10.322;2022-10-26T05:41:24;16.15;;;4.82;;
72720;SDS011;60835;50.974;10.322;2022-10-26T05:43:51;9.68;;;3.85;;
72720;SDS011;60835;50.974;10.322;2022-10-26T05:46:17;15.77;;;3.25;;
72720;SDS011;60835;50.974;10.322;2022-10-26T05:48:44;9.90;;;3.80;;
72720;SDS011;60835;50.974;10.322;2022-10-26T05:51:10;10.77;;;4.55;;
72720;SDS011;60835;50.974;10.322;2022-10-26T05:53:37;13.68;;;4.40;;
72720;SDS011;60835;50.974;10.322;2022-10-26T05:56:10;12.70;;;4.20;;
72720;SDS011;60835;50.974;10.322;2022-10-26T05:58:44;9.07;;;4.53;;
72720;SDS011;60835;50.974;10.322;2022-10-26T06:03:59;13.90;;;4.40;;
72720;SDS011;60835;50.974;10.322;2022-10-26T06:06:44;13.60;;;5.25;;
72720;SDS011;60835;50.974;10.322;2022-10-26T06:09:15;15.50;;;4.70;;
72720;SDS011;60835;50.974;10.322;2022-10-26T06:11:41;9.10;;;4.65;;
72720;SDS011;60835;50.974;10.322;2022-10-26T06:14:08;8.02;;;4.55;;
72720;SDS011;60835;50.974;10.322;2022-10-26T06:17:25;9.68;;;4.35;;
72720;SDS011;60835;50.974;10.322;2022-10-26T06:22:50;14.85;;;5.03;;
72720;SDS011;60835;50.974;10.322;2022-10-26T06:28:14;12.85;;;4.55;;
72720;SDS011;60835;50.974;10.322;2022-10-26T06:30:51;13.70;;;4.60;;
72720;SDS011;60835;50.974;10.322;2022-10-26T06:33:17;25.63;;;6.05;;
72720;SDS011;60835;50.974;10.322;2022-10-26T06:36:19;15.48;;;4.97;;
72720;SDS011;60835;50.974;10.322;2022-10-26T06:38:58;14.35;;;4.97;;
72720;SDS011;60835;50.974;10.322;2022-10-26T06:41:31;13.48;;;4.70;;
72720;SDS011;60835;50.974;10.322;2022-10-26T06:43:59;21.70;;;5.28;;
72720;SDS011;60835;50.974;10.322;2022-10-26T06:46:38;13.55;;;5.28;;
72720;SDS011;60835;50.974;10.322;2022-10-26T06:49:26;14.05;;;5.68;;
72720;SDS011;60835;50.974;10.322;2022-10-26T06:52:04;16.48;;;6.15;;
72720;SDS011;60835;50.974;10.322;2022-10-26T06:54:49;11.57;;;6.32;;
72720;SDS011;60835;50.974;10.322;2022-10-26T06:57:18;15.43;;;6.35;;
72720;SDS011;60835;50.974;10.322;2022-10-26T06:59:48;15.13;;;6.43;;
72720;SDS011;60835;50.974;10.322;2022-10-26T07:02:17;17.10;;;6.25;;
72720;SDS011;60835;50.974;10.322;2022-10-26T07:04:44;12.90;;;5.55;;
72720;SDS011;60835;50.974;10.322;2022-10-26T07:07:13;10.40;;;5.45;;
72720;SDS011;60835;50.974;10.322;2022-10-26T07:09:42;14.38;;;5.85;;
72720;SDS011;60835;50.974;10.322;2022-10-26T07:12:09;13.40;;;5.65;;
72720;SDS011;60835;50.974;10.322;2022-10-26T07:14:35;12.13;;;5.35;;
72720;SDS011;60835;50.974;10.322;2022-10-26T07:17:02;24.42;;;9.23;;
72720;SDS011;60835;50.974;10.322;2022-10-26T07:19:29;19.77;;;7.13;;
72720;SDS011;60835;50.974;10.322;2022-10-26T07:21:55;23.58;;;6.70;;
72720;SDS011;60835;50.974;10.322;2022-10-26T07:24:25;20.17;;;6.55;;
72720;SDS011;60835;50.974;10.322;2022-10-26T07:26:54;16.15;;;6.05;;
72720;SDS011;60835;50.974;10.322;2022-10-26T07:29:22;22.10;;;6.07;;
72720;SDS011;60835;50.974;10.322;2022-10-26T07:31:49;10.30;;;5.53;;
72720;SDS011;60835;50.974;10.322;2022-10-26T07:34:16;9.73;;;5.47;;
72720;SDS011;60835;50.974;10.322;2022-10-26T07:36:42;19.73;;;6.43;;
72720;SDS011;60835;50.974;10.322;2022-10-26T07:39:09;18.08;;;6.32;;
72720;SDS011;60835;50.974;10.322;2022-10-26T07:41:35;18.13;;;5.75;;
72720;SDS011;60835;50.974;10.322;2022-10-26T07:44:02;15.00;;;5.90;;
72720;SDS011;60835;50.974;10.322;2022-10-26T07:46:28;14.00;;;5.80;;
72720;SDS011;60835;50.974;10.322;2022-10-26T07:48:55;15.60;;;6.03;;
72720;SDS011;60835;50.974;10.322;2022-10-26T07:51:21;13.10;;;5.07;;
72720;SDS011;60835;50.974;10.322;2022-10-26T07:53:48;13.77;;;5.18;;
72720;SDS011;60835;50.974;10.322;2022-10-26T07:56:14;12.90;;;5.25;;
72720;SDS011;60835;50.974;10.322;2022-10-26T07:58:41;11.13;;;5.43;;
72720;SDS011;60835;50.974;10.322;2022-10-26T08:01:08;17.55;;;5.60;;
72720;SDS011;60835;50.974;10.322;2022-10-26T08:03:37;14.50;;;5.32;;
72720;SDS011;60835;50.974;10.322;2022-10-26T08:06:04;10.45;;;4.55;;
72720;SDS011;60835;50.974;10.322;2022-10-26T08:08:31;6.70;;;4.35;;
72720;SDS011;60835;50.974;10.322;2022-10-26T08:10:57;14.23;;;4.68;;
72720;SDS011;60835;50.974;10.322;2022-10-26T08:13:24;8.77;;;5.03;;
72720;SDS011;60835;50.974;10.322;2022-10-26T08:15:58;10.43;;;4.75;;
72720;SDS011;60835;50.974;10.322;2022-10-26T08:18:25;8.70;;;4.53;;
72720;SDS011;60835;50.974;10.322;2022-10-26T08:20:52;11.38;;;4.60;;
72720;SDS011;60835;50.974;10.322;2022-10-26T08:23:30;8.25;;;4.55;;
72720;SDS011;60835;50.974;10.322;2022-10-26T08:25:57;10.00;;;4.70;;
72720;SDS011;60835;50.974;10.322;2022-10-26T08:28:25;14.65;;;4.78;;
72720;SDS011;60835;50.974;10.322;2022-10-26T08:30:52;9.93;;;5.05;;
72720;SDS011;60835;50.974;10.322;2022-10-26T08:33:19;9.30;;;4.43;;
72720;SDS011;60835;50.974;10.322;2022-10-26T08:35:46;15.07;;;4.97;;
72720;SDS011;60835;50.974;10.322;2022-10-26T08:38:13;8.98;;;5.25;;
72720;SDS011;60835;50.974;10.322;2022-10-26T08:40:40;11.73;;;5.30;;
72720;SDS011;60835;50.974;10.322;2022-10-26T08:43:21;12.02;;;5.85;;
72720;SDS011;60835;50.974;10.322;2022-10-26T08:45:56;9.45;;;5.85;;
72720;SDS011;60835;50.974;10.322;2022-10-26T08:48:29;12.45;;;5.78;;
72720;SDS011;60835;50.974;10.322;2022-10-26T08:51:00;11.32;;;5.03;;
72720;SDS011;60835;50.974;10.322;2022-10-26T08:56:14;13.23;;;5.47;;
72720;SDS011;60835;50.974;10.322;2022-10-26T08:58:47;11.05;;;5.55;;
72720;SDS011;60835;50.974;10.322;2022-10-26T09:01:19;15.63;;;6.57;;
72720;SDS011;60835;50.974;10.322;2022-10-26T09:03:46;15.18;;;6.30;;
72720;SDS011;60835;50.974;10.322;2022-10-26T09:11:42;14.32;;;6.70;;
72720;SDS011;60835;50.974;10.322;2022-10-26T09:14:42;12.57;;;5.75;;
72720;SDS011;60835;50.974;10.322;2022-10-26T09:17:34;16.38;;;6.53;;
72720;SDS011;60835;50.974;10.322;2022-10-26T09:20:11;21.95;;;6.20;;
72720;SDS011;60835;50.974;10.322;2022-10-26T09:25:19;13.10;;;5.43;;
72720;SDS011;60835;50.974;10.322;2022-10-26T09:27:51;10.98;;;6.13;;
72720;SDS011;60835;50.974;10.322;2022-10-26T09:30:22;11.98;;;5.95;;
72720;SDS011;60835;50.974;10.322;2022-10-26T09:32:49;19.90;;;6.70;;
72720;SDS011;60835;50.974;10.322;2022-10-26T09:35:30;17.75;;;7.07;;
72720;SDS011;60835;50.974;10.322;2022-10-26T09:41:00;13.00;;;7.75;;
72720;SDS011;60835;50.974;10.322;2022-10-26T09:43:57;16.40;;;7.80;;
72720;SDS011;60835;50.974;10.322;2022-10-26T09:49:39;12.82;;;6.53;;
72720;SDS011;60835;50.974;10.322;2022-10-26T09:52:14;24.33;;;12.43;;
72720;SDS011;60835;50.974;10.322;2022-10-26T09:54:41;11.95;;;7.00;;
72720;SDS011;60835;50.974;10.322;2022-10-26T09:57:08;13.27;;;6.63;;
72720;SDS011;60835;50.974;10.322;2022-10-26T09:59:37;12.13;;;5.80;;
72720;SDS011;60835;50.974;10.322;2022-10-26T10:05:00;11.38;;;5.40;;
72720;SDS011;60835;50.974;10.322;2022-10-26T10:07:27;12.30;;;6.70;;
72720;SDS011;60835;50.974;10.322;2022-10-26T10:10:06;19.02;;;5.57;;
72720;SDS011;60835;50.974;10.322;2022-10-26T10:12:41;9.10;;;5.20;;
72720;SDS011;60835;50.974;10.322;2022-10-26T10:15:18;16.30;;;4.88;;
72720;SDS011;60835;50.974;10.322;2022-10-26T10:17:50;11.35;;;5.47;;
72720;SDS011;60835;50.974;10.322;2022-10-26T10:20:20;15.32;;;5.25;;
72720;SDS011;60835;50.974;10.322;2022-10-26T10:22:58;11.65;;;5.38;;
72720;SDS011;60835;50.974;10.322;2022-10-26T10:25:36;13.68;;;5.75;;
72720;SDS011;60835;50.974;10.322;2022-10-26T10:28:21;16.30;;;6.75;;
72720;SDS011;60835;50.974;10.322;2022-10-26T10:30:56;17.55;;;7.30;;
72720;SDS011;60835;50.974;10.322;2022-10-26T10:33:58;14.63;;;6.63;;
72720;SDS011;60835;50.974;10.322;2022-10-26T10:36:18;19.55;;;9.98;;
72720;SDS011;60835;50.974;10.322;2022-10-26T10:38:47;16.40;;;8.15;;
72720;SDS011;60835;50.974;10.322;2022-10-26T10:41:20;17.58;;;7.65;;
72720;SDS011;60835;50.974;10.322;2022-10-26T10:43:51;13.80;;;5.45;;
72720;SDS011;60835;50.974;10.322;2022-10-26T10:46:23;13.65;;;5.63;;
72720;SDS011;60835;50.974;10.322;2022-10-26T10:49:00;18.60;;;6.55;;
72720;SDS011;60835;50.974;10.322;2022-10-26T10:51:29;15.38;;;6.03;;
72720;SDS011;60835;50.974;10.322;2022-10-26T10:54:01;14.75;;;4.45;;
72720;SDS011;60835;50.974;10.322;2022-10-26T11:01:45;8.70;;;3.97;;
72720;SDS011;60835;50.974;10.322;2022-10-26T11:04:35;11.38;;;5.90;;
72720;SDS011;60835;50.974;10.322;2022-10-26T11:07:05;17.70;;;5.28;;
72720;SDS011;60835;50.974;10.322;2022-10-26T11:09:33;13.70;;;5.78;;
72720;SDS011;60835;50.974;10.322;2022-10-26T11:14:47;11.30;;;4.88;;
72720;SDS011;60835;50.974;10.322;2022-10-26T11:19:57;10.32;;;4.50;;
72720;SDS011;60835;50.974;10.322;2022-10-26T11:22:29;11.20;;;4.03;;
72720;SDS011;60835;50.974;10.322;2022-10-26T11:27:38;9.55;;;3.75;;
72720;SDS011;60835;50.974;10.322;2022-10-26T11:30:14;12.00;;;4.88;;
72720;SDS011;60835;50.974;10.322;2022-10-26T11:35:43;6.82;;;3.83;;
72720;SDS011;60835;50.974;10.322;2022-10-26T11:38:16;15.07;;;4.82;;
72720;SDS011;60835;50.974;10.322;2022-10-26T11:41:19;13.05;;;5.65;;
72720;SDS011;60835;50.974;10.322;2022-10-26T11:43:53;16.97;;;6.93;;
72720;SDS011;60835;50.974;10.322;2022-10-26T11:46:38;14.38;;;7.25;;
72720;SDS011;60835;50.974;10.322;2022-10-26T11:49:10;15.32;;;6.78;;
72720;SDS011;60835;50.974;10.322;2022-10-26T11:51:49;13.50;;;6.28;;
72720;SDS011;60835;50.974;10.322;2022-10-26T11:54:27;11.30;;;5.47;;
72720;SDS011;60835;50.974;10.322;2022-10-26T11:56:58;10.43;;;6.07;;
72720;SDS011;60835;50.974;10.322;2022-10-26T11:59:27;11.55;;;4.70;;
72720;SDS011;60835;50.974;10.322;2022-10-26T12:02:20;7.28;;;4.32;;
72720;SDS011;60835;50.974;10.322;2022-10-26T12:07:52;7.07;;;2.72;;
72720;SDS011;60835;50.974;10.322;2022-10-26T12:10:29;8.57;;;2.33;;
72720;SDS011;60835;50.974;10.322;2022-10-26T12:16:08;5.45;;;1.90;;
72720;SDS011;60835;50.974;10.322;2022-10-26T12:21:23;5.20;;;2.30;;
72720;SDS011;60835;50.974;10.322;2022-10-26T12:27:24;6.22;;;2.10;;
72720;SDS011;60835;50.974;10.322;2022-10-26T12:29:53;9.82;;;5.32;;
72720;SDS011;60835;50.974;10.322;2022-10-26T12:43:32;5.13;;;2.00;;
72720;SDS011;60835;50.974;10.322;2022-10-26T12:48:48;4.07;;;2.00;;
72720;SDS011;60835;50.974;10.322;2022-10-26T12:56:41;5.10;;;1.80;;
72720;SDS011;60835;50.974;10.322;2022-10-26T12:59:20;8.50;;;4.30;;
72720;SDS011;60835;50.974;10.322;2022-10-26T13:07:21;6.03;;;2.20;;
72720;SDS011;60835;50.974;10.322;2022-10-26T13:09:53;7.90;;;2.17;;
72720;SDS011;60835;50.974;10.322;2022-10-26T13:12:23;7.32;;;2.38;;
72720;SDS011;60835;50.974;10.322;2022-10-26T13:15:01;11.63;;;2.60;;
72720;SDS011;60835;50.974;10.322;2022-10-26T13:17:31;6.80;;;1.90;;
72720;SDS011;60835;50.974;10.322;2022-10-26T13:20:00;8.98;;;2.13;;
72720;SDS011;60835;50.974;10.322;2022-10-26T13:22:30;11.98;;;2.08;;
72720;SDS011;60835;50.974;10.322;2022-10-26T13:24:57;11.27;;;2.15;;
72720;SDS011;60835;50.974;10.322;2022-10-26T13:32:29;6.13;;;2.15;;
72720;SDS011;60835;50.974;10.322;2022-10-26T13:34:59;7.80;;;2.15;;
72720;SDS011;60835;50.974;10.322;2022-10-26T13:37:28;8.40;;;2.80;;
72720;SDS011;60835;50.974;10.322;2022-10-26T13:39:58;6.03;;;1.98;;
72720;SDS011;60835;50.974;10.322;2022-10-26T13:42:26;5.72;;;2.28;;
72720;SDS011;60835;50.974;10.322;2022-10-26T13:44:58;7.45;;;2.30;;
72720;SDS011;60835;50.974;10.322;2022-10-26T13:47:35;7.82;;;2.00;;
72720;SDS011;60835;50.974;10.322;2022-10-26T13:50:30;7.82;;;2.17;;
72720;SDS011;60835;50.974;10.322;2022-10-26T14:01:34;8.88;;;2.03;;
72720;SDS011;60835;50.974;10.322;2022-10-26T14:04:14;11.63;;;2.92;;
72720;SDS011;60835;50.974;10.322;2022-10-26T14:06:46;9.18;;;2.60;;
72720;SDS011;60835;50.974;10.322;2022-10-26T14:09:16;5.35;;;2.30;;
72720;SDS011;60835;50.974;10.322;2022-10-26T14:11:55;22.65;;;3.25;;
72720;SDS011;60835;50.974;10.322;2022-10-26T14:14:25;8.82;;;2.47;;
72720;SDS011;60835;50.974;10.322;2022-10-26T14:16:55;9.70;;;2.30;;
72720;SDS011;60835;50.974;10.322;2022-10-26T14:22:00;6.50;;;2.40;;
72720;SDS011;60835;50.974;10.322;2022-10-26T14:24:31;15.60;;;3.15;;
72720;SDS011;60835;50.974;10.322;2022-10-26T14:27:16;7.38;;;2.30;;
72720;SDS011;60835;50.974;10.322;2022-10-26T14:29:44;6.63;;;2.30;;
72720;SDS011;60835;50.974;10.322;2022-10-26T14:32:24;15.73;;;2.75;;
72720;SDS011;60835;50.974;10.322;2022-10-26T14:34:51;10.80;;;2.10;;
72720;SDS011;60835;50.974;10.322;2022-10-26T14:37:26;9.48;;;2.85;;
72720;SDS011;60835;50.974;10.322;2022-10-26T14:40:01;8.02;;;2.22;;
72720;SDS011;60835;50.974;10.322;2022-10-26T14:42:29;4.85;;;2.15;;
72720;SDS011;60835;50.974;10.322;2022-10-26T14:44:58;7.80;;;2.33;;
72720;SDS011;60835;50.974;10.322;2022-10-26T14:47:29;15.45;;;4.20;;
72720;SDS011;60835;50.974;10.322;2022-10-26T14:49:58;7.95;;;2.35;;
72720;SDS011;60835;50.974;10.322;2022-10-26T14:52:31;12.10;;;2.67;;
72720;SDS011;60835;50.974;10.322;2022-10-26T14:55:11;11.35;;;2.40;;
72720;SDS011;60835;50.974;10.322;2022-10-26T14:57:41;12.27;;;2.38;;
72720;SDS011;60835;50.974;10.322;2022-10-26T15:00:13;8.60;;;2.63;;
72720;SDS011;60835;50.974;10.322;2022-10-26T15:02:52;6.05;;;2.40;;
72720;SDS011;60835;50.974;10.322;2022-10-26T15:05:27;17.10;;;8.00;;
72720;SDS011;60835;50.974;10.322;2022-10-26T15:08:01;8.68;;;2.75;;
72720;SDS011;60835;50.974;10.322;2022-10-26T15:15:53;14.05;;;2.90;;
72720;SDS011;60835;50.974;10.322;2022-10-26T15:18:24;8.75;;;3.08;;
72720;SDS011;60835;50.974;10.322;2022-10-26T15:20:53;12.07;;;3.03;;
72720;SDS011;60835;50.974;10.322;2022-10-26T15:23:22;14.65;;;4.55;;
72720;SDS011;60835;50.974;10.322;2022-10-26T15:25:56;12.98;;;4.13;;
72720;SDS011;60835;50.974;10.322;2022-10-26T15:28:30;13.45;;;4.78;;
72720;SDS011;60835;50.974;10.322;2022-10-26T15:31:23;8.82;;;3.45;;
72720;SDS011;60835;50.974;10.322;2022-10-26T15:36:21;16.55;;;6.20;;
72720;SDS011;60835;50.974;10.322;2022-10-26T15:38:50;8.60;;;2.47;;
72720;SDS011;60835;50.974;10.322;2022-10-26T15:43:54;12.80;;;3.72;;
72720;SDS011;60835;50.974;10.322;2022-10-26T15:46:30;21.38;;;10.25;;
72720;SDS011;60835;50.974;10.322;2022-10-26T15:48:59;11.32;;;4.30;;
72720;SDS011;60835;50.974;10.322;2022-10-26T15:51:27;18.50;;;5.20;;
72720;SDS011;60835;50.974;10.322;2022-10-26T15:53:58;10.95;;;2.70;;
72720;SDS011;60835;50.974;10.322;2022-10-26T15:58:55;18.17;;;6.18;;
72720;SDS011;60835;50.974;10.322;2022-10-26T16:01:23;17.73;;;5.93;;
72720;SDS011;60835;50.974;10.322;2022-10-26T16:03:51;15.45;;;7.22;;
72720;SDS011;60835;50.974;10.322;2022-10-26T16:06:22;31.70;;;13.32;;
72720;SDS011;60835;50.974;10.322;2022-10-26T16:08:54;33.88;;;9.07;;
72720;SDS011;60835;50.974;10.322;2022-10-26T16:11:23;19.08;;;7.70;;
72720;SDS011;60835;50.974;10.322;2022-10-26T16:13:49;14.57;;;4.03;;
72720;SDS011;60835;50.974;10.322;2022-10-26T16:16:20;11.35;;;4.00;;
72720;SDS011;60835;50.974;10.322;2022-10-26T16:18:51;9.38;;;3.70;;
72720;SDS011;60835;50.974;10.322;2022-10-26T16:21:38;13.70;;;5.32;;
72720;SDS011;60835;50.974;10.322;2022-10-26T16:24:06;15.20;;;4.30;;
72720;SDS011;60835;50.974;10.322;2022-10-26T16:26:34;16.50;;;5.05;;
72720;SDS011;60835;50.974;10.322;2022-10-26T16:29:00;15.88;;;5.57;;
72720;SDS011;60835;50.974;10.322;2022-10-26T16:31:27;10.45;;;4.38;;
72720;SDS011;60835;50.974;10.322;2022-10-26T16:33:53;10.20;;;4.00;;
72720;SDS011;60835;50.974;10.322;2022-10-26T16:36:20;11.13;;;4.00;;
72720;SDS011;60835;50.974;10.322;2022-10-26T16:38:46;12.80;;;4.30;;
72720;SDS011;60835;50.974;10.322;2022-10-26T16:41:13;13.38;;;4.97;;
72720;SDS011;60835;50.974;10.322;2022-10-26T16:43:42;15.48;;;4.63;;
72720;SDS011;60835;50.974;10.322;2022-10-26T16:46:11;14.82;;;4.60;;
72720;SDS011;60835;50.974;10.322;2022-10-26T16:48:41;8.82;;;4.70;;
72720;SDS011;60835;50.974;10.322;2022-10-26T16:51:09;9.77;;;4.40;;
72720;SDS011;60835;50.974;10.322;2022-10-26T16:53:36;14.00;;;4.78;;
72720;SDS011;60835;50.974;10.322;2022-10-26T16:56:04;11.85;;;2.70;;
72720;SDS011;60835;50.974;10.322;2022-10-26T16:58:33;13.43;;;3.17;;
72720;SDS011;60835;50.974;10.322;2022-10-26T17:01:03;11.63;;;3.15;;
72720;SDS011;60835;50.974;10.322;2022-10-26T17:03:30;9.45;;;3.10;;
72720;SDS011;60835;50.974;10.322;2022-10-26T17:05:57;11.73;;;3.05;;
72720;SDS011;60835;50.974;10.322;2022-10-26T17:08:26;14.63;;;2.80;;
72720;SDS011;60835;50.974;10.322;2022-10-26T17:10:53;8.18;;;3.47;;
72720;SDS011;60835;50.974;10.322;2022-10-26T17:13:26;8.95;;;3.50;;